Antonino, Kansas
Current Conditions -  °F | °C
As of 1:15 AM on Monday 24 Nov 2014 (Local Time) from KHYS Reporting Station
Clear Clear  
Wind Chill: 24°   Ceiling: Unl
Heat Index: 34°   Visibility: 10mi
Dew Point: 14°   Wind: 15mph
Humidity: 44%   Direction: 290°WNW
Pressure: 29.75"   Gusts: NA
Location:  38.8338°N, 99.3297°W
Report Text: KHYS 240715Z AUTO 29013KT 10SM CLR 01/M10 A2975 RMK AO1
Loading
Personal Weather Stations






























Interactive Weather Map New forecast layout! Learn more

10-Day Weather Forecast

Advertisements
Track Severe Weather on mobile